createdAt,value
2017-11-25T00:00:58.000Z,0.00
2017-11-25T00:01:57.995Z,0.00
2017-11-25T00:02:57.989Z,0.00
2017-11-25T00:03:57.981Z,0.00
2017-11-25T00:04:57.973Z,0.00
2017-11-25T00:05:57.965Z,0.00
2017-11-25T00:06:57.958Z,0.00
2017-11-25T00:07:57.950Z,0.00
2017-11-25T00:08:57.943Z,0.00
2017-11-25T00:09:57.940Z,0.00
2017-11-25T00:10:57.933Z,0.00
2017-11-25T00:11:57.929Z,0.00
2017-11-25T00:12:57.922Z,0.00
2017-11-25T00:13:57.916Z,0.00
2017-11-25T00:14:57.910Z,0.00
2017-11-25T00:15:57.902Z,0.00
2017-11-25T00:16:57.896Z,0.00
2017-11-25T00:17:57.926Z,0.00
2017-11-25T00:18:57.882Z,0.00
2017-11-25T00:19:57.873Z,0.00
2017-11-25T00:20:57.865Z,0.00
2017-11-25T00:21:57.858Z,0.00
2017-11-25T00:22:57.852Z,0.00
2017-11-25T00:23:57.846Z,0.00
2017-11-25T00:24:57.840Z,0.00
2017-11-25T00:25:57.832Z,0.00
2017-11-25T00:26:57.827Z,0.00
2017-11-25T00:27:57.824Z,0.00
2017-11-25T00:28:57.818Z,0.00
2017-11-25T00:29:57.815Z,0.00
2017-11-25T00:30:57.806Z,0.00
2017-11-25T00:31:57.796Z,0.00
2017-11-25T00:32:57.789Z,0.00
2017-11-25T00:33:57.783Z,0.00
2017-11-25T00:34:57.777Z,0.00
2017-11-25T00:35:57.767Z,0.00
2017-11-25T00:36:57.760Z,0.00
2017-11-25T00:37:57.758Z,0.00
2017-11-25T00:38:57.746Z,0.00
2017-11-25T00:39:57.744Z,0.00
2017-11-25T00:40:57.739Z,0.00
2017-11-25T00:41:57.731Z,0.00
2017-11-25T00:42:57.737Z,0.00
2017-11-25T00:43:57.717Z,0.00
2017-11-25T00:44:57.707Z,0.00
2017-11-25T00:45:57.702Z,0.00
2017-11-25T00:46:57.693Z,0.00
2017-11-25T00:47:57.686Z,0.00
2017-11-25T00:48:57.689Z,0.00
2017-11-25T00:49:57.673Z,0.00
2017-11-25T00:50:57.668Z,0.00
2017-11-25T00:51:57.664Z,0.00
2017-11-25T00:52:57.658Z,0.00
2017-11-25T00:53:57.651Z,0.00
2017-11-25T00:54:57.645Z,0.00
2017-11-25T00:55:57.637Z,0.00
2017-11-25T00:56:57.631Z,0.00
2017-11-25T00:57:57.625Z,0.00
2017-11-25T00:58:57.616Z,0.00
2017-11-25T00:59:57.604Z,0.00
2017-11-25T01:00:57.598Z,0.00
2017-11-25T01:01:57.590Z,0.00
2017-11-25T01:02:57.583Z,0.00
2017-11-25T01:03:57.575Z,0.00
2017-11-25T01:04:57.567Z,0.00
2017-11-25T01:05:57.572Z,0.00
2017-11-25T01:06:57.554Z,0.00
2017-11-25T01:07:57.548Z,0.00
2017-11-25T01:08:57.549Z,0.00
2017-11-25T01:09:57.535Z,0.00
2017-11-25T01:10:57.528Z,0.00
2017-11-25T01:11:57.527Z,0.00
2017-11-25T01:12:57.511Z,0.00
2017-11-25T01:13:57.505Z,0.00
2017-11-25T01:14:57.497Z,0.00
2017-11-25T01:15:57.493Z,0.00
2017-11-25T01:16:57.492Z,0.00
2017-11-25T01:17:57.485Z,0.00
2017-11-25T01:18:57.477Z,0.00
2017-11-25T01:19:57.470Z,0.00
2017-11-25T01:20:57.460Z,0.00
2017-11-25T01:21:57.458Z,0.00
2017-11-25T01:22:57.450Z,0.00
2017-11-25T01:23:57.440Z,0.00
2017-11-25T01:24:57.432Z,0.00
2017-11-25T01:25:57.424Z,0.00
2017-11-25T01:26:57.426Z,0.00
2017-11-25T01:27:57.409Z,0.00
2017-11-25T01:28:57.401Z,0.00
2017-11-25T01:29:57.394Z,0.00
2017-11-25T01:30:57.385Z,0.00
2017-11-25T01:31:57.373Z,0.00
2017-11-25T01:32:57.366Z,0.00
2017-11-25T01:33:57.357Z,0.00
2017-11-25T01:34:57.350Z,0.00
2017-11-25T01:35:57.341Z,0.00
2017-11-25T01:36:57.339Z,0.00
2017-11-25T01:37:57.325Z,0.00
2017-11-25T01:38:57.317Z,0.00
2017-11-25T01:39:57.315Z,0.00
2017-11-25T01:40:57.305Z,0.00
2017-11-25T01:41:57.300Z,0.00
2017-11-25T01:42:57.288Z,0.00
2017-11-25T01:43:57.280Z,0.00
2017-11-25T01:44:57.269Z,0.00
2017-11-25T01:45:57.260Z,0.00
2017-11-25T01:46:57.254Z,0.00
2017-11-25T01:47:57.248Z,0.00
2017-11-25T01:48:57.240Z,0.00
2017-11-25T01:49:57.232Z,0.00
2017-11-25T01:50:57.224Z,0.00
2017-11-25T01:51:57.213Z,0.00
2017-11-25T01:52:57.207Z,0.00
2017-11-25T01:53:57.199Z,0.00
2017-11-25T01:54:57.190Z,0.00
2017-11-25T01:55:57.179Z,0.00
2017-11-25T01:56:57.169Z,0.00
2017-11-25T01:57:57.162Z,0.00
2017-11-25T01:58:57.153Z,0.00
2017-11-25T01:59:57.144Z,0.00
2017-11-25T02:00:57.135Z,0.00
2017-11-25T02:01:57.131Z,0.00
2017-11-25T02:02:57.119Z,0.00
2017-11-25T02:03:57.114Z,0.00
2017-11-25T02:04:57.108Z,0.00
2017-11-25T02:05:57.098Z,0.00
2017-11-25T02:06:57.091Z,0.00
2017-11-25T02:07:57.081Z,0.00
2017-11-25T02:08:57.072Z,0.00
2017-11-25T02:09:57.069Z,0.00
2017-11-25T02:10:57.055Z,0.00
2017-11-25T02:11:57.041Z,0.00
2017-11-25T02:12:57.034Z,0.00
2017-11-25T02:13:57.025Z,0.00
2017-11-25T02:14:57.018Z,0.00
2017-11-25T02:15:57.008Z,0.00
2017-11-25T02:16:57.000Z,0.00
2017-11-25T02:17:56.992Z,0.00
2017-11-25T02:18:56.984Z,0.00
2017-11-25T02:19:56.977Z,0.00
2017-11-25T02:20:56.967Z,0.00
2017-11-25T02:21:56.960Z,0.00
2017-11-25T02:22:56.952Z,0.00
2017-11-25T02:23:56.944Z,0.00
2017-11-25T02:24:56.934Z,0.00
2017-11-25T02:25:56.925Z,0.00
2017-11-25T02:26:56.916Z,0.00
2017-11-25T02:27:56.904Z,0.00
2017-11-25T02:28:56.896Z,0.00
2017-11-25T02:29:56.889Z,0.00
2017-11-25T02:30:56.879Z,0.00
2017-11-25T02:31:56.875Z,0.00
2017-11-25T02:32:56.859Z,0.00
2017-11-25T02:33:56.852Z,0.00
2017-11-25T02:34:56.843Z,0.00
2017-11-25T02:35:56.838Z,0.00
2017-11-25T02:36:56.829Z,0.00
2017-11-25T02:37:56.823Z,0.00
2017-11-25T02:38:56.812Z,0.00
2017-11-25T02:39:56.803Z,0.00
2017-11-25T02:40:56.795Z,0.00
2017-11-25T02:41:56.786Z,0.00
2017-11-25T02:42:56.782Z,0.00
2017-11-25T02:43:56.764Z,0.00
2017-11-25T02:44:56.758Z,0.00
2017-11-25T02:45:56.747Z,0.00
2017-11-25T02:46:56.740Z,0.00
2017-11-25T02:47:56.734Z,0.00
2017-11-25T02:48:56.725Z,0.00
2017-11-25T02:49:56.716Z,0.00
2017-11-25T02:50:56.711Z,0.00
2017-11-25T02:51:56.695Z,0.00
2017-11-25T02:52:56.698Z,0.00
2017-11-25T02:53:56.686Z,0.00
2017-11-25T02:54:56.670Z,0.00
2017-11-25T02:55:56.661Z,0.00
2017-11-25T02:56:56.651Z,0.00
2017-11-25T02:57:56.644Z,0.00
2017-11-25T02:58:56.636Z,0.00
2017-11-25T02:59:56.630Z,0.00
2017-11-25T03:00:56.620Z,0.00
2017-11-25T03:01:56.615Z,0.00
2017-11-25T03:02:56.607Z,0.00
2017-11-25T03:03:56.595Z,0.00
2017-11-25T03:04:56.588Z,0.00
2017-11-25T03:05:56.580Z,0.00
2017-11-25T03:06:56.570Z,0.00
2017-11-25T03:07:56.558Z,0.00
2017-11-25T03:08:56.550Z,0.00
2017-11-25T03:09:56.541Z,0.00
2017-11-25T03:10:56.533Z,0.00
2017-11-25T03:11:56.524Z,0.00
2017-11-25T03:12:56.517Z,0.00
2017-11-25T03:13:56.507Z,0.00
2017-11-25T03:14:56.498Z,0.00
2017-11-25T03:15:56.494Z,0.00
2017-11-25T03:16:56.484Z,0.00
2017-11-25T03:17:56.477Z,0.00
2017-11-25T03:18:56.470Z,0.00
2017-11-25T03:19:56.458Z,0.00
2017-11-25T03:20:56.451Z,0.00
2017-11-25T03:21:56.443Z,0.00
2017-11-25T03:22:56.435Z,0.00
2017-11-25T03:23:56.421Z,0.00
2017-11-25T03:24:56.412Z,0.00
2017-11-25T03:25:56.404Z,0.00
2017-11-25T03:26:56.396Z,0.00
2017-11-25T03:27:56.386Z,0.00
2017-11-25T03:28:56.378Z,0.00
2017-11-25T03:29:56.380Z,0.00
2017-11-25T03:30:56.362Z,0.00
2017-11-25T03:31:56.356Z,0.00
2017-11-25T03:32:56.347Z,0.00
2017-11-25T03:33:56.338Z,0.00
2017-11-25T03:34:56.335Z,0.00
2017-11-25T03:35:56.323Z,0.00
2017-11-25T03:36:56.312Z,0.00
2017-11-25T03:37:56.308Z,0.00
2017-11-25T03:38:56.296Z,0.00
2017-11-25T03:39:56.281Z,0.00
2017-11-25T03:40:56.274Z,0.00
2017-11-25T03:41:56.264Z,0.00
2017-11-25T03:42:56.259Z,0.00
2017-11-25T03:43:56.246Z,0.00
2017-11-25T03:44:56.238Z,0.00
2017-11-25T03:45:56.230Z,0.00
2017-11-25T03:46:56.222Z,0.00
2017-11-25T03:47:56.216Z,0.00
2017-11-25T03:48:56.209Z,0.00
2017-11-25T03:49:56.199Z,0.00
2017-11-25T03:50:56.190Z,0.00
2017-11-25T03:51:56.177Z,0.00
2017-11-25T03:52:56.168Z,0.00
2017-11-25T03:53:56.159Z,0.00
2017-11-25T03:54:56.151Z,0.00
2017-11-25T03:55:56.145Z,0.00
2017-11-25T03:56:56.139Z,0.00
2017-11-25T03:57:56.127Z,0.00
2017-11-25T03:58:56.122Z,0.00
2017-11-25T03:59:56.111Z,0.00
2017-11-25T04:00:56.102Z,0.00
2017-11-25T04:01:56.095Z,0.00
2017-11-25T04:02:56.084Z,0.00
2017-11-25T04:03:56.070Z,0.00
2017-11-25T04:04:56.064Z,0.00
2017-11-25T04:05:56.061Z,0.00
2017-11-25T04:06:56.047Z,0.00
2017-11-25T04:07:56.041Z,0.00
2017-11-25T04:08:56.028Z,0.00
2017-11-25T04:09:56.019Z,0.00
2017-11-25T04:10:56.011Z,0.00
2017-11-25T04:11:56.006Z,0.00
2017-11-25T04:12:55.998Z,0.00
2017-11-25T04:13:55.989Z,0.00
2017-11-25T04:14:55.982Z,0.00
2017-11-25T04:15:55.970Z,0.00
2017-11-25T04:16:55.964Z,0.00
2017-11-25T04:17:55.953Z,0.00
2017-11-25T04:18:55.946Z,0.00
2017-11-25T04:19:55.932Z,0.00
2017-11-25T04:20:55.923Z,0.00
2017-11-25T04:21:55.915Z,0.00
2017-11-25T04:22:55.907Z,0.00
2017-11-25T04:23:55.897Z,0.00
2017-11-25T04:24:55.889Z,0.00
2017-11-25T04:25:55.880Z,0.00
2017-11-25T04:26:55.873Z,0.00
2017-11-25T04:27:55.873Z,0.00
2017-11-25T04:28:55.858Z,0.00
2017-11-25T04:29:55.850Z,0.00
2017-11-25T04:30:55.842Z,0.00
2017-11-25T04:31:55.831Z,0.00
2017-11-25T04:32:55.824Z,0.00
2017-11-25T04:33:55.815Z,0.00
2017-11-25T04:34:55.806Z,0.00
2017-11-25T04:35:55.793Z,0.00
2017-11-25T04:36:55.786Z,0.00
2017-11-25T04:37:55.775Z,0.00
2017-11-25T04:38:55.768Z,0.00
2017-11-25T04:39:55.759Z,0.00
2017-11-25T04:40:55.750Z,0.00
2017-11-25T04:41:55.742Z,0.00
2017-11-25T04:42:55.733Z,0.00
2017-11-25T04:43:55.728Z,0.00
2017-11-25T04:44:55.720Z,0.00
2017-11-25T04:45:55.711Z,0.00
2017-11-25T04:46:55.703Z,0.00
2017-11-25T04:47:55.694Z,0.00
2017-11-25T04:48:55.686Z,0.00
2017-11-25T04:49:55.681Z,0.00
2017-11-25T04:50:55.668Z,0.00
2017-11-25T04:51:55.656Z,0.00
2017-11-25T04:52:55.647Z,0.00
2017-11-25T04:53:55.648Z,0.00
2017-11-25T04:54:55.630Z,0.00
2017-11-25T04:55:55.623Z,0.00
2017-11-25T04:56:55.614Z,0.00
2017-11-25T04:57:55.606Z,0.00
2017-11-25T04:58:55.598Z,0.00
2017-11-25T04:59:55.593Z,0.00
2017-11-25T05:00:55.585Z,0.00
2017-11-25T05:01:55.577Z,0.00
2017-11-25T05:02:55.568Z,0.00
2017-11-25T05:03:55.560Z,0.00
2017-11-25T05:04:55.551Z,0.00
2017-11-25T05:05:55.542Z,0.00
2017-11-25T05:06:55.535Z,0.00
2017-11-25T05:07:55.521Z,0.00
2017-11-25T05:08:55.517Z,0.00
2017-11-25T05:09:55.504Z,0.00
2017-11-25T05:10:55.497Z,0.00
2017-11-25T05:11:55.487Z,0.00
2017-11-25T05:12:55.481Z,0.00
2017-11-25T05:13:55.472Z,0.00
2017-11-25T05:14:55.464Z,0.00
2017-11-25T05:15:55.460Z,0.00
2017-11-25T05:16:55.453Z,0.00
2017-11-25T05:17:55.451Z,0.00
2017-11-25T05:18:55.436Z,0.00
2017-11-25T05:19:55.431Z,0.00
2017-11-25T05:20:55.418Z,0.00
2017-11-25T05:21:55.410Z,0.00
2017-11-25T05:22:55.415Z,0.00
2017-11-25T05:23:55.389Z,0.00
2017-11-25T05:24:55.381Z,0.00
2017-11-25T05:25:55.373Z,0.00
2017-11-25T05:26:55.365Z,0.00
2017-11-25T05:27:55.356Z,0.00
2017-11-25T05:28:55.350Z,0.00
2017-11-25T05:29:55.341Z,0.00
2017-11-25T05:30:55.337Z,0.00
2017-11-25T05:31:55.329Z,0.00
2017-11-25T05:32:55.320Z,0.00
2017-11-25T05:33:55.313Z,0.00
2017-11-25T05:34:55.304Z,0.00
2017-11-25T05:35:55.294Z,0.00
2017-11-25T05:36:55.288Z,0.00
2017-11-25T05:37:55.280Z,0.00
2017-11-25T05:38:55.272Z,0.00
2017-11-25T05:39:55.259Z,0.00
2017-11-25T05:40:55.250Z,0.00
2017-11-25T05:41:55.242Z,0.00
2017-11-25T05:42:55.234Z,0.00
2017-11-25T05:43:55.229Z,0.00
2017-11-25T05:44:55.217Z,0.00
2017-11-25T05:45:55.209Z,0.00
2017-11-25T05:46:55.200Z,0.00
2017-11-25T05:47:55.195Z,0.00
2017-11-25T05:48:55.188Z,0.00
2017-11-25T05:49:55.179Z,0.00
2017-11-25T05:50:55.173Z,0.00
2017-11-25T05:51:55.162Z,0.00
2017-11-25T05:52:55.155Z,0.00
2017-11-25T05:53:55.147Z,0.00
2017-11-25T05:54:55.138Z,0.00
2017-11-25T05:55:55.126Z,0.00
2017-11-25T05:56:55.117Z,0.00
2017-11-25T05:57:55.109Z,0.00
2017-11-25T05:58:55.100Z,0.00
2017-11-25T05:59:55.096Z,0.00
2017-11-25T06:00:55.114Z,0.00
2017-11-25T06:01:55.089Z,0.00
2017-11-25T06:02:55.072Z,0.00
2017-11-25T06:03:55.059Z,0.00
2017-11-25T06:04:55.051Z,0.00
2017-11-25T06:05:55.043Z,0.00
2017-11-25T06:06:55.037Z,0.00
2017-11-25T06:07:55.025Z,0.00
2017-11-25T06:08:55.018Z,0.00
2017-11-25T06:09:55.011Z,0.00
2017-11-25T06:10:55.000Z,0.00
2017-11-25T06:11:54.997Z,0.00
2017-11-25T06:12:54.988Z,0.00
2017-11-25T06:13:54.981Z,0.00
2017-11-25T06:14:54.972Z,0.00
2017-11-25T06:15:54.962Z,0.00
2017-11-25T06:16:54.957Z,0.00
2017-11-25T06:17:54.946Z,0.00
2017-11-25T06:18:54.940Z,0.00
2017-11-25T06:19:54.926Z,0.00
2017-11-25T06:20:54.919Z,0.00
2017-11-25T06:21:54.909Z,0.00
2017-11-25T06:22:54.902Z,0.00
2017-11-25T06:23:54.896Z,0.00
2017-11-25T06:24:54.884Z,0.00
2017-11-25T06:25:54.879Z,0.00
2017-11-25T06:26:54.867Z,0.00
2017-11-25T06:27:54.865Z,0.00
2017-11-25T06:28:54.855Z,0.00
2017-11-25T06:29:54.847Z,0.00
2017-11-25T06:30:54.856Z,0.00
2017-11-25T06:31:54.830Z,0.00
2017-11-25T06:32:54.823Z,0.00
2017-11-25T06:33:54.814Z,0.00
2017-11-25T06:34:54.806Z,0.00
2017-11-25T06:35:54.794Z,0.00
2017-11-25T06:36:54.791Z,0.00
2017-11-25T06:37:54.779Z,0.00
2017-11-25T06:38:54.770Z,0.00
2017-11-25T06:39:54.762Z,0.00
2017-11-25T06:40:54.754Z,0.00
2017-11-25T06:41:54.745Z,0.00
2017-11-25T06:42:54.738Z,0.00
2017-11-25T06:43:54.762Z,0.00
2017-11-25T06:44:54.724Z,4.00
2017-11-25T06:45:54.717Z,4.00
2017-11-25T06:46:54.709Z,0.00
2017-11-25T06:47:54.699Z,4.00
2017-11-25T06:48:54.693Z,4.00
2017-11-25T06:49:54.685Z,8.00
2017-11-25T06:50:54.675Z,4.00
2017-11-25T06:51:54.662Z,8.00
2017-11-25T06:52:54.655Z,8.00
2017-11-25T06:53:54.646Z,8.00
2017-11-25T06:54:54.639Z,8.00
2017-11-25T06:55:54.630Z,12.00
2017-11-25T06:56:54.623Z,12.00
2017-11-25T06:57:54.616Z,16.00
2017-11-25T06:58:54.607Z,16.00
2017-11-25T06:59:54.601Z,16.00
2017-11-25T07:00:54.596Z,16.00
2017-11-25T07:01:54.585Z,24.00
2017-11-25T07:02:54.579Z,24.00
2017-11-25T07:03:54.563Z,24.00
2017-11-25T07:04:54.559Z,28.00
2017-11-25T07:05:54.550Z,28.00
2017-11-25T07:06:54.541Z,32.00
2017-11-25T07:07:54.536Z,36.00
2017-11-25T07:08:54.529Z,40.00
2017-11-25T07:09:54.521Z,40.00
2017-11-25T07:10:54.512Z,44.00
2017-11-25T07:11:54.504Z,52.00
2017-11-25T07:12:54.496Z,56.00
2017-11-25T07:13:54.489Z,60.00
2017-11-25T07:14:54.481Z,64.00
2017-11-25T07:15:54.467Z,68.00
2017-11-25T07:16:54.460Z,68.00
2017-11-25T07:17:54.452Z,68.00
2017-11-25T07:18:54.447Z,72.00
2017-11-25T07:19:54.433Z,72.00
2017-11-25T07:20:54.427Z,76.00
2017-11-25T07:21:54.417Z,80.00
2017-11-25T07:22:54.410Z,84.00
2017-11-25T07:23:54.405Z,88.00
2017-11-25T07:24:54.399Z,96.00
2017-11-25T07:25:54.390Z,96.00
2017-11-25T07:26:54.383Z,104.00
2017-11-25T07:27:54.375Z,104.00
2017-11-25T07:28:54.367Z,108.00
2017-11-25T07:29:54.360Z,112.00
2017-11-25T07:30:54.351Z,116.00
2017-11-25T07:31:54.337Z,120.00
2017-11-25T07:32:54.330Z,128.00
2017-11-25T07:33:54.322Z,136.00
2017-11-25T07:34:54.316Z,140.00
2017-11-25T07:35:54.305Z,148.00
2017-11-25T07:36:54.298Z,156.00
2017-11-25T07:37:54.315Z,168.00
2017-11-25T07:38:54.284Z,172.00
2017-11-25T07:39:54.277Z,172.00
2017-11-25T07:40:54.270Z,172.00
2017-11-25T07:41:54.261Z,184.00
2017-11-25T07:42:54.255Z,184.00
2017-11-25T07:43:54.245Z,188.00
2017-11-25T07:44:54.236Z,192.00
2017-11-25T07:45:54.228Z,192.00
2017-11-25T07:46:54.220Z,192.00
2017-11-25T07:47:54.209Z,196.00
2017-11-25T07:48:54.201Z,208.00
2017-11-25T07:49:54.191Z,240.00
2017-11-25T07:50:54.184Z,272.00
2017-11-25T07:51:54.176Z,316.00
2017-11-25T07:52:54.168Z,364.00
2017-11-25T07:53:54.162Z,400.00
2017-11-25T07:54:54.157Z,412.00
2017-11-25T07:55:54.145Z,420.00
2017-11-25T07:56:54.146Z,444.00
2017-11-25T07:57:54.131Z,456.00
2017-11-25T07:58:54.123Z,460.00
2017-11-25T07:59:54.113Z,472.00
2017-11-25T08:00:54.106Z,488.00
2017-11-25T08:01:54.099Z,504.00
2017-11-25T08:02:54.090Z,516.00
2017-11-25T08:03:54.077Z,524.00
2017-11-25T08:04:54.071Z,528.00
2017-11-25T08:05:54.061Z,528.00
2017-11-25T08:06:54.054Z,528.00
2017-11-25T08:07:54.050Z,532.00
2017-11-25T08:08:54.042Z,540.00
2017-11-25T08:09:54.035Z,552.00
2017-11-25T08:10:54.020Z,564.00
2017-11-25T08:11:54.008Z,584.00
2017-11-25T08:12:53.990Z,584.00
2017-11-25T08:13:53.982Z,580.00
2017-11-25T08:14:53.975Z,576.00
2017-11-25T08:15:53.967Z,568.00
2017-11-25T08:16:53.960Z,568.00
2017-11-25T08:17:53.950Z,572.00
2017-11-25T08:18:53.944Z,588.00
2017-11-25T08:19:53.939Z,624.00
2017-11-25T08:20:53.931Z,664.00
2017-11-25T08:21:53.923Z,696.00
2017-11-25T08:22:53.916Z,708.00
2017-11-25T08:23:53.908Z,736.00
2017-11-25T08:24:53.899Z,700.00
2017-11-25T08:25:53.891Z,716.00
2017-11-25T08:26:53.884Z,732.00
2017-11-25T08:27:53.871Z,760.00
2017-11-25T08:28:53.862Z,804.00
2017-11-25T08:29:53.856Z,864.00
2017-11-25T08:30:53.848Z,944.00
2017-11-25T08:31:53.839Z,1024.00
2017-11-25T08:32:53.832Z,1128.00
2017-11-25T08:33:53.824Z,1240.00
2017-11-25T08:34:53.816Z,1376.00
2017-11-25T08:35:53.814Z,1496.00
2017-11-25T08:36:53.806Z,1596.00
2017-11-25T08:37:53.797Z,1708.00
2017-11-25T08:38:53.789Z,1784.00
2017-11-25T08:39:53.783Z,1852.00
2017-11-25T08:40:53.772Z,1908.00
2017-11-25T08:41:53.765Z,1964.00
2017-11-25T08:42:53.756Z,2088.00
2017-11-25T08:43:53.744Z,2156.00
2017-11-25T08:44:53.744Z,2232.00
2017-11-25T08:45:53.738Z,2296.00
2017-11-25T08:46:53.724Z,2364.00
2017-11-25T08:47:53.722Z,2444.00
2017-11-25T08:48:53.708Z,2520.00
2017-11-25T08:49:53.704Z,2608.00
2017-11-25T08:50:53.698Z,2684.00
2017-11-25T08:51:53.687Z,2756.00
2017-11-25T08:52:53.680Z,2804.00
2017-11-25T08:53:53.673Z,2852.00
2017-11-25T08:54:53.666Z,2876.00
2017-11-25T08:55:53.658Z,2908.00
2017-11-25T08:56:53.652Z,2948.00
2017-11-25T08:57:53.643Z,2948.00
2017-11-25T08:58:53.644Z,2932.00
2017-11-25T08:59:53.625Z,2912.00
2017-11-25T09:00:53.618Z,2872.00
2017-11-25T09:01:53.611Z,2856.00
2017-11-25T09:02:53.607Z,2840.00
2017-11-25T09:03:53.594Z,2768.00
2017-11-25T09:04:53.589Z,2688.00
2017-11-25T09:05:53.581Z,2612.00
2017-11-25T09:06:53.574Z,2588.00
2017-11-25T09:07:53.571Z,2624.00
2017-11-25T09:08:53.564Z,2700.00
2017-11-25T09:09:53.559Z,2784.00
2017-11-25T09:10:53.556Z,2840.00
2017-11-25T09:11:53.540Z,2904.00
2017-11-25T09:12:53.536Z,2924.00
2017-11-25T09:13:53.525Z,2928.00
2017-11-25T09:14:53.519Z,2940.00
2017-11-25T09:15:53.517Z,2972.00
2017-11-25T09:16:53.509Z,3016.00
2017-11-25T09:17:53.502Z,3080.00
2017-11-25T09:18:53.495Z,3136.00
2017-11-25T09:19:53.487Z,3196.00
2017-11-25T09:20:53.482Z,3264.00
2017-11-25T09:21:53.488Z,3272.00
2017-11-25T09:22:53.468Z,3248.00
2017-11-25T09:23:53.458Z,3236.00
2017-11-25T09:24:53.449Z,3244.00
2017-11-25T09:25:53.446Z,3228.00
2017-11-25T09:26:53.438Z,3216.00
2017-11-25T09:27:53.431Z,3184.00
2017-11-25T09:28:53.423Z,3136.00
2017-11-25T09:29:53.417Z,3000.00
2017-11-25T09:30:53.410Z,2788.00
2017-11-25T09:31:53.408Z,2652.00
2017-11-25T09:32:53.402Z,2572.00
2017-11-25T09:33:53.395Z,2516.00
2017-11-25T09:34:53.389Z,2404.00
2017-11-25T09:35:53.391Z,2252.00
2017-11-25T09:36:53.375Z,2028.00
2017-11-25T09:37:53.369Z,1940.00
2017-11-25T09:38:53.363Z,1960.00
2017-11-25T09:39:53.351Z,2024.00
2017-11-25T09:40:53.346Z,2092.00
2017-11-25T09:41:53.338Z,2152.00
2017-11-25T09:42:53.341Z,2268.00
2017-11-25T09:43:53.325Z,2408.00
2017-11-25T09:44:53.318Z,2556.00
2017-11-25T09:45:53.312Z,2756.00
2017-11-25T09:46:53.305Z,2964.00
2017-11-25T09:47:53.303Z,3184.00
2017-11-25T09:48:53.296Z,3544.00
2017-11-25T09:49:53.289Z,3880.00
2017-11-25T09:50:53.284Z,3964.00
2017-11-25T09:51:53.277Z,4132.00
2017-11-25T09:52:53.270Z,4332.00
2017-11-25T09:53:53.263Z,4428.00
2017-11-25T09:54:53.260Z,4512.00
2017-11-25T09:55:53.246Z,4700.00
2017-11-25T09:56:53.241Z,4656.00
2017-11-25T09:57:53.233Z,4772.00
2017-11-25T09:58:53.229Z,5004.00
2017-11-25T09:59:53.220Z,5160.00
2017-11-25T10:00:53.214Z,5216.00
2017-11-25T10:01:53.208Z,5168.00
2017-11-25T10:02:53.201Z,5524.00
2017-11-25T10:03:53.199Z,4800.00
2017-11-25T10:04:53.191Z,4608.00
2017-11-25T10:05:53.188Z,4472.00
2017-11-25T10:06:53.181Z,4444.00
2017-11-25T10:07:53.173Z,4548.00
2017-11-25T10:08:53.169Z,4368.00
2017-11-25T10:09:53.161Z,4404.00
2017-11-25T10:10:53.160Z,4532.00
2017-11-25T10:11:53.147Z,4716.00
2017-11-25T10:12:53.139Z,5000.00
2017-11-25T10:13:53.134Z,5140.00
2017-11-25T10:14:53.140Z,5108.00
2017-11-25T10:15:53.130Z,4968.00
2017-11-25T10:16:53.121Z,4960.00
2017-11-25T10:17:53.128Z,5304.00
2017-11-25T10:18:53.107Z,5256.00
2017-11-25T10:19:53.108Z,4980.00
2017-11-25T10:20:53.095Z,6312.00
2017-11-25T10:21:53.092Z,7076.00
2017-11-25T10:22:53.080Z,7220.00
2017-11-25T10:23:53.072Z,6856.00
2017-11-25T10:24:53.067Z,6844.00
2017-11-25T10:25:53.064Z,9220.00
2017-11-25T10:26:53.061Z,8936.00
2017-11-25T10:27:53.057Z,5256.00
2017-11-25T10:28:53.051Z,4116.00
2017-11-25T10:29:53.047Z,4344.00
2017-11-25T10:30:53.050Z,4608.00
2017-11-25T10:31:53.038Z,5280.00
2017-11-25T10:32:53.034Z,6796.00
2017-11-25T10:33:53.028Z,7784.00
2017-11-25T10:34:53.025Z,7384.00
2017-11-25T10:35:53.030Z,9020.00
2017-11-25T10:36:53.013Z,7028.00
2017-11-25T10:37:53.010Z,5376.00
2017-11-25T10:38:53.006Z,4200.00
2017-11-25T10:39:53.003Z,4104.00
2017-11-25T10:40:53.003Z,4036.00
2017-11-25T10:41:53.017Z,3972.00
2017-11-25T10:42:52.993Z,4032.00
2017-11-25T10:43:52.992Z,4060.00
2017-11-25T10:44:52.990Z,4472.00
2017-11-25T10:45:52.986Z,5580.00
2017-11-25T10:46:52.984Z,4192.00
2017-11-25T10:47:52.980Z,4340.00
2017-11-25T10:48:52.975Z,5132.00
2017-11-25T10:49:52.973Z,6192.00
2017-11-25T10:50:52.968Z,8440.00
2017-11-25T10:51:52.960Z,8360.00
2017-11-25T10:52:52.959Z,8916.00
2017-11-25T10:53:52.954Z,9816.00
2017-11-25T10:54:52.952Z,8016.00
2017-11-25T10:55:52.948Z,6400.00
2017-11-25T10:56:52.947Z,5540.00
2017-11-25T10:57:52.943Z,5400.00
2017-11-25T10:58:52.939Z,5288.00
2017-11-25T10:59:52.940Z,5700.00
2017-11-25T11:00:52.938Z,6228.00
2017-11-25T11:01:52.933Z,6108.00
2017-11-25T11:02:52.932Z,5456.00
2017-11-25T11:03:52.929Z,5316.00
2017-11-25T11:04:52.925Z,5280.00
2017-11-25T11:05:52.923Z,5144.00
2017-11-25T11:06:52.921Z,5296.00
2017-11-25T11:07:52.911Z,5424.00
2017-11-25T11:08:52.910Z,5588.00
2017-11-25T11:09:52.907Z,5336.00
2017-11-25T11:10:52.912Z,5220.00
2017-11-25T11:11:52.899Z,5496.00
2017-11-25T11:12:52.905Z,5980.00
2017-11-25T11:13:52.894Z,6204.00
2017-11-25T11:14:52.892Z,6260.00
2017-11-25T11:15:52.892Z,6608.00
2017-11-25T11:16:52.889Z,6520.00
2017-11-25T11:17:52.890Z,6432.00
2017-11-25T11:18:52.882Z,6424.00
2017-11-25T11:19:52.875Z,6492.00
2017-11-25T11:20:52.871Z,6464.00
2017-11-25T11:21:52.867Z,6504.00
2017-11-25T11:22:52.864Z,6564.00
2017-11-25T11:23:52.865Z,6628.00
2017-11-25T11:24:52.861Z,6560.00
2017-11-25T11:25:52.859Z,6488.00
2017-11-25T11:26:52.856Z,6300.00
2017-11-25T11:27:52.851Z,6064.00
2017-11-25T11:28:52.851Z,5672.00
2017-11-25T11:29:52.846Z,5496.00
2017-11-25T11:30:52.844Z,5164.00
2017-11-25T11:31:52.834Z,4980.00
2017-11-25T11:32:52.830Z,5072.00
2017-11-25T11:33:52.828Z,5008.00
2017-11-25T11:34:52.845Z,4944.00
2017-11-25T11:35:52.820Z,4812.00
2017-11-25T11:36:52.820Z,4780.00
2017-11-25T11:37:52.813Z,4688.00
2017-11-25T11:38:52.809Z,4620.00
2017-11-25T11:39:52.819Z,4620.00
2017-11-25T11:40:52.806Z,4744.00
2017-11-25T11:41:52.803Z,4900.00
2017-11-25T11:42:52.798Z,5068.00
2017-11-25T11:43:52.794Z,5084.00
2017-11-25T11:44:52.791Z,5344.00
2017-11-25T11:45:52.787Z,5716.00
2017-11-25T11:46:52.784Z,6264.00
2017-11-25T11:47:52.773Z,6388.00
2017-11-25T11:48:52.770Z,6080.00
2017-11-25T11:49:52.767Z,5576.00
2017-11-25T11:50:52.762Z,5196.00
2017-11-25T11:51:52.758Z,4804.00
2017-11-25T11:52:52.754Z,4520.00
2017-11-25T11:53:52.750Z,4352.00
2017-11-25T11:54:52.747Z,4212.00
2017-11-25T11:55:52.744Z,4124.00
2017-11-25T11:56:52.741Z,4316.00
2017-11-25T11:57:52.738Z,4448.00
2017-11-25T11:58:52.738Z,4832.00
2017-11-25T11:59:52.727Z,5236.00
2017-11-25T12:00:52.728Z,5532.00
2017-11-25T12:01:52.719Z,5632.00
2017-11-25T12:02:52.718Z,5776.00
2017-11-25T12:03:52.706Z,5896.00
2017-11-25T12:04:52.701Z,5604.00
2017-11-25T12:05:52.701Z,5556.00
2017-11-25T12:06:52.693Z,5316.00
2017-11-25T12:07:52.686Z,5060.00
2017-11-25T12:08:52.683Z,4788.00
2017-11-25T12:09:52.679Z,4192.00
2017-11-25T12:10:52.684Z,3808.00
2017-11-25T12:11:52.679Z,3488.00
2017-11-25T12:12:52.670Z,3244.00
2017-11-25T12:13:52.664Z,2984.00
2017-11-25T12:14:52.661Z,2812.00
2017-11-25T12:15:52.656Z,2704.00
2017-11-25T12:16:52.649Z,2620.00
2017-11-25T12:17:52.647Z,2528.00
2017-11-25T12:18:52.642Z,2444.00
2017-11-25T12:19:52.633Z,2408.00
2017-11-25T12:20:52.626Z,2352.00
2017-11-25T12:21:52.622Z,2296.00
2017-11-25T12:22:52.617Z,2248.00
2017-11-25T12:23:52.617Z,2256.00
2017-11-25T12:24:52.612Z,2288.00
2017-11-25T12:25:52.607Z,2288.00
2017-11-25T12:26:52.601Z,2368.00
2017-11-25T12:27:52.592Z,2524.00
2017-11-25T12:28:52.587Z,2640.00
2017-11-25T12:29:52.581Z,2828.00
2017-11-25T12:30:52.575Z,3008.00
2017-11-25T12:31:52.570Z,3084.00
2017-11-25T12:32:52.566Z,3284.00
2017-11-25T12:33:52.560Z,3424.00
2017-11-25T12:34:52.556Z,3512.00
2017-11-25T12:35:52.553Z,3552.00
2017-11-25T12:36:52.548Z,3580.00
2017-11-25T12:37:52.544Z,3600.00
2017-11-25T12:38:52.537Z,3600.00
2017-11-25T12:39:52.533Z,3592.00
2017-11-25T12:40:52.526Z,3556.00
2017-11-25T12:41:52.520Z,3388.00
2017-11-25T12:42:52.513Z,3196.00
2017-11-25T12:43:52.505Z,3104.00
2017-11-25T12:44:52.500Z,2944.00
2017-11-25T12:45:52.493Z,2872.00
2017-11-25T12:46:52.490Z,2940.00
2017-11-25T12:47:52.482Z,2908.00